Time;durP1;ratioP1;P1;durP2;ratioP2;P2;SDS_P1;SDS_P2;PMS_P1;PMS_P2;Temp;Humidity;BMP_temperature;BMP_pressure;BME280_temperature;BME280_humidity;BME280_pressure;Samples;Min_cycle;Max_cycle;Signal;HPM_P1;HPM_P2
2022/08/16 00:00:49;;;;;;;5.07;2.90;;;20.70;99.90;;;;;;5050471;28;20032;-81
2022/08/16 00:03:15;;;;;;;3.28;2.17;;;20.60;99.90;;;;;;5067797;28;20040;-80
2022/08/16 00:05:42;;;;;;;3.92;2.30;;;20.50;99.90;;;;;;5050275;28;20071;-82
2022/08/16 00:08:08;;;;;;;2.72;1.88;;;20.50;99.90;;;;;;5066273;28;20364;-80
2022/08/16 00:10:34;;;;;;;3.25;2.70;;;20.50;99.90;;;;;;5058720;28;20274;-82
2022/08/16 00:13:01;;;;;;;3.55;2.28;;;20.50;99.90;;;;;;5045070;28;20071;-83
2022/08/16 00:15:44;;;;;;;2.60;2.05;;;20.50;99.90;;;;;;5059814;28;20036;-80
2022/08/16 00:18:10;;;;;;;2.75;2.47;;;20.40;99.90;;;;;;5042417;28;20051;-82
2022/08/16 00:20:38;;;;;;;4.60;2.90;;;20.40;99.90;;;;;;5066860;28;20028;-82
2022/08/16 00:23:05;;;;;;;3.38;3.03;;;20.50;99.90;;;;;;5064151;28;20086;-83
2022/08/16 00:25:31;;;;;;;3.22;2.90;;;20.40;99.90;;;;;;5045801;28;20078;-81
2022/08/16 00:27:56;;;;;;;6.97;2.95;;;20.40;99.90;;;;;;5060403;28;20037;-81
2022/08/16 00:30:23;;;;;;;4.93;2.97;;;20.30;99.90;;;;;;5048195;28;20123;-83
2022/08/16 00:32:52;;;;;;;3.08;2.78;;;20.20;99.90;;;;;;5047694;28;20393;-81
2022/08/16 00:35:22;;;;;;;4.22;2.78;;;20.10;99.90;;;;;;5049482;28;20162;-80
2022/08/16 00:37:48;;;;;;;5.50;3.70;;;20.00;99.90;;;;;;5076353;28;20445;-85
2022/08/16 00:40:27;;;;;;;4.78;3.85;;;19.90;99.90;;;;;;5059138;28;20084;-82
2022/08/16 00:42:53;;;;;;;4.45;3.60;;;19.90;99.90;;;;;;5057826;28;20032;-81
2022/08/16 00:45:39;;;;;;;4.07;3.50;;;19.90;99.90;;;;;;5045404;28;20032;-80
2022/08/16 00:48:08;;;;;;;3.97;3.42;;;19.90;99.90;;;;;;5057983;28;20028;-80
2022/08/16 00:50:36;;;;;;;4.43;3.63;;;19.90;99.90;;;;;;5062941;28;20040;-82
2022/08/16 00:53:06;;;;;;;4.80;3.53;;;20.00;99.90;;;;;;5058430;28;20028;-82
2022/08/16 00:55:35;;;;;;;5.03;2.88;;;20.00;99.90;;;;;;5046788;28;20020;-85
2022/08/16 00:58:03;;;;;;;4.10;3.15;;;19.90;99.90;;;;;;5059163;28;20485;-83
2022/08/16 01:00:32;;;;;;;3.90;3.50;;;19.90;99.90;;;;;;5064754;28;20025;-80
2022/08/16 01:03:00;;;;;;;3.92;3.10;;;19.90;99.90;;;;;;5059079;28;20041;-80
2022/08/16 01:05:27;;;;;;;3.92;3.63;;;19.90;99.90;;;;;;5044364;28;20029;-80
2022/08/16 01:07:54;;;;;;;4.50;3.83;;;19.90;99.90;;;;;;5049224;28;20016;-83
2022/08/16 01:10:22;;;;;;;6.50;3.83;;;19.90;99.90;;;;;;5064799;28;20028;-85
2022/08/16 01:12:48;;;;;;;4.03;3.63;;;19.80;99.90;;;;;;5043007;28;20560;-79
2022/08/16 01:15:15;;;;;;;3.72;3.33;;;19.80;99.90;;;;;;5058085;28;20024;-83
2022/08/16 01:17:43;;;;;;;4.40;3.25;;;19.80;99.90;;;;;;5048154;28;20028;-81
2022/08/16 01:20:12;;;;;;;4.45;2.95;;;19.80;99.90;;;;;;5064865;28;20074;-81
2022/08/16 01:23:06;;;;;;;4.00;3.47;;;19.80;99.90;;;;;;5048594;28;20032;-84
2022/08/16 01:25:36;;;;;;;4.18;2.63;;;19.80;99.90;;;;;;5059268;28;20516;-82
2022/08/16 01:28:06;;;;;;;3.50;3.20;;;19.70;99.90;;;;;;5059672;28;20025;-81
2022/08/16 01:30:36;;;;;;;5.57;3.08;;;19.60;99.90;;;;;;5049233;28;20252;-81
2022/08/16 01:33:02;;;;;;;;;;;19.50;99.90;;;;;;5056715;28;20120;-82
2022/08/16 01:35:49;;;;;;;3.67;2.53;;;19.50;99.90;;;;;;5048528;28;19916;-83
2022/08/16 01:38:25;;;;;;;3.85;3.15;;;19.50;99.90;;;;;;5067449;28;20032;-80
2022/08/16 01:40:56;;;;;;;4.85;2.70;;;19.50;99.90;;;;;;5065858;28;20041;-80
2022/08/16 01:43:23;;;;;;;3.28;2.92;;;19.50;99.90;;;;;;5046660;28;20124;-81
2022/08/16 01:45:58;;;;;;;4.85;3.22;;;19.50;99.90;;;;;;5058260;28;20035;-80
2022/08/16 01:48:29;;;;;;;4.32;3.60;;;19.50;99.90;;;;;;5062979;28;20040;-85
2022/08/16 01:50:55;;;;;;;4.18;3.50;;;19.40;99.90;;;;;;5047896;28;20057;-81
2022/08/16 01:53:22;;;;;;;5.43;3.92;;;19.40;99.90;;;;;;5066051;28;20028;-81
2022/08/16 01:56:06;;;;;;;3.55;3.17;;;19.40;99.90;;;;;;5056970;28;20040;-80
2022/08/16 01:58:34;;;;;;;4.45;3.20;;;19.40;99.90;;;;;;5059470;28;20021;-82
2022/08/16 02:01:00;;;;;;;4.15;3.65;;;19.30;99.90;;;;;;5037972;28;20032;-81
2022/08/16 02:03:28;;;;;;;5.18;3.60;;;19.30;99.90;;;;;;5057486;28;20040;-81
2022/08/16 02:05:54;;;;;;;3.97;3.45;;;19.20;99.90;;;;;;5057556;28;20021;-82
2022/08/16 02:08:19;;;;;;;4.70;3.35;;;19.10;99.90;;;;;;5064650;28;20024;-80
2022/08/16 02:10:45;;;;;;;4.72;3.65;;;19.10;99.90;;;;;;5049189;28;20025;-80
2022/08/16 02:13:11;;;;;;;4.55;3.40;;;19.10;99.90;;;;;;5049539;28;20033;-84
2022/08/16 02:15:40;;;;;;;4.38;3.22;;;19.10;99.90;;;;;;5046975;28;20021;-83
2022/08/16 02:18:07;;;;;;;3.67;3.35;;;19.10;99.90;;;;;;5044698;28;20109;-83
2022/08/16 02:20:36;;;;;;;5.32;3.75;;;19.10;99.90;;;;;;5045360;28;20171;-80
2022/08/16 02:23:03;;;;;;;3.75;3.45;;;19.10;99.90;;;;;;5053624;28;20040;-80
2022/08/16 02:25:28;;;;;;;4.55;3.38;;;19.20;99.90;;;;;;5043139;28;20477;-83
2022/08/16 02:27:54;;;;;;;4.93;3.75;;;19.20;99.90;;;;;;5037349;28;20020;-81
2022/08/16 02:30:24;;;;;;;3.25;2.92;;;19.20;99.90;;;;;;5063962;28;20123;-81
2022/08/16 02:32:49;;;;;;;4.25;3.00;;;19.20;99.90;;;;;;5072528;28;20025;-83
2022/08/16 02:35:16;;;;;;;4.32;3.67;;;19.20;99.90;;;;;;5070367;28;20029;-83
2022/08/16 02:37:42;;;;;;;3.70;3.22;;;19.20;99.90;;;;;;5058615;28;20024;-84
2022/08/16 02:40:10;;;;;;;3.80;3.08;;;19.30;99.90;;;;;;5040297;28;20059;-79
2022/08/16 02:42:36;;;;;;;3.78;3.40;;;19.30;99.90;;;;;;5042093;28;20028;-82
2022/08/16 02:45:03;;;;;;;3.53;3.10;;;19.30;99.90;;;;;;5066860;28;20485;-84
2022/08/16 02:47:29;;;;;;;4.55;3.58;;;19.30;99.90;;;;;;5066199;28;20025;-80
2022/08/16 02:49:55;;;;;;;4.20;3.78;;;19.20;99.90;;;;;;5050794;28;20480;-83
2022/08/16 02:52:22;;;;;;;3.97;3.58;;;19.20;99.90;;;;;;5044681;28;20040;-81
2022/08/16 02:54:49;;;;;;;4.03;3.72;;;19.20;99.90;;;;;;5044446;28;20163;-80
2022/08/16 02:57:14;;;;;;;5.40;4.10;;;19.20;99.90;;;;;;5064254;28;20096;-82
2022/08/16 02:59:41;;;;;;;5.47;4.20;;;19.10;99.90;;;;;;5068386;28;20025;-84
2022/08/16 03:02:09;;;;;;;4.10;3.22;;;19.10;99.90;;;;;;5068602;28;20025;-83
2022/08/16 03:04:36;;;;;;;4.68;3.92;;;19.10;99.90;;;;;;5067863;28;20185;-84
2022/08/16 03:07:03;;;;;;;4.80;4.07;;;19.10;99.90;;;;;;5062827;28;20032;-81
2022/08/16 03:09:49;;;;;;;4.65;4.22;;;19.00;99.90;;;;;;5064092;28;20485;-82
2022/08/16 03:12:18;;;;;;;5.28;4.22;;;19.00;99.90;;;;;;5061524;28;20594;-80
2022/08/16 03:14:46;;;;;;;6.35;4.75;;;18.90;99.90;;;;;;5046688;28;20031;-80
2022/08/16 03:17:12;;;;;;;4.43;4.07;;;18.90;99.90;;;;;;5047151;28;20460;-82
2022/08/16 03:19:38;;;;;;;5.45;4.95;;;18.90;99.90;;;;;;5063968;28;20108;-84
2022/08/16 03:22:04;;;;;;;5.78;4.65;;;18.80;99.90;;;;;;5050229;28;20048;-83
2022/08/16 03:24:30;;;;;;;4.72;4.22;;;18.80;99.90;;;;;;5068375;28;20068;-80
2022/08/16 03:26:59;;;;;;;5.57;4.45;;;18.70;99.90;;;;;;5050972;28;20025;-80
2022/08/16 03:29:31;;;;;;;6.65;4.70;;;18.70;99.90;;;;;;5058729;28;20028;-82
2022/08/16 03:32:00;;;;;;;5.63;4.82;;;18.60;99.90;;;;;;5063739;28;20025;-85
2022/08/16 03:34:26;;;;;;;5.15;4.70;;;18.60;99.90;;;;;;5059715;28;20035;-79
2022/08/16 03:36:52;;;;;;;5.75;5.15;;;18.50;99.90;;;;;;5042457;28;20026;-80
2022/08/16 03:39:18;;;;;;;5.47;4.97;;;18.50;99.90;;;;;;5050970;28;20286;-80
2022/08/16 03:41:44;;;;;;;5.38;4.88;;;18.50;99.90;;;;;;5055519;28;20251;-80
2022/08/16 03:44:09;;;;;;;6.10;5.35;;;18.50;99.90;;;;;;5045918;28;20542;-80
2022/08/16 03:46:36;;;;;;;5.80;5.30;;;18.40;99.90;;;;;;5050538;28;20020;-80
2022/08/16 03:49:03;;;;;;;5.63;5.05;;;18.40;99.90;;;;;;5045784;28;20455;-81
2022/08/16 03:51:29;;;;;;;5.38;4.88;;;18.40;99.90;;;;;;5061755;28;20156;-81
2022/08/16 03:54:01;;;;;;;6.07;4.57;;;18.30;99.90;;;;;;5046027;28;20449;-84
2022/08/16 03:56:27;;;;;;;5.03;4.50;;;18.20;99.90;;;;;;5046371;28;20036;-83
2022/08/16 03:58:55;;;;;;;8.15;4.82;;;18.30;99.90;;;;;;5065885;28;20104;-80
2022/08/16 04:01:25;;;;;;;5.05;4.55;;;18.30;99.90;;;;;;5067301;28;20056;-80
2022/08/16 04:03:51;;;;;;;6.80;4.97;;;18.30;99.90;;;;;;5065073;28;20396;-80
2022/08/16 04:06:18;;;;;;;5.05;4.55;;;18.30;99.90;;;;;;5066840;28;20334;-82
2022/08/16 04:08:43;;;;;;;5.43;4.68;;;18.20;99.90;;;;;;5066702;28;20048;-84
2022/08/16 04:11:09;;;;;;;6.00;5.47;;;18.30;99.90;;;;;;5072809;28;20029;-80
2022/08/16 04:13:36;;;;;;;5.32;4.82;;;18.30;99.90;;;;;;5049730;28;20032;-82
2022/08/16 04:16:02;;;;;;;7.72;5.20;;;18.30;99.90;;;;;;5066713;28;20025;-80
2022/08/16 04:18:28;;;;;;;5.85;4.95;;;18.20;99.90;;;;;;5044687;28;20033;-80
2022/08/16 04:20:55;;;;;;;6.55;5.25;;;18.20;99.90;;;;;;5064101;28;20033;-80
2022/08/16 04:23:24;;;;;;;5.10;4.60;;;18.20;99.90;;;;;;5048081;28;20493;-81
2022/08/16 04:25:51;;;;;;;5.70;5.10;;;18.20;99.90;;;;;;5055832;28;20469;-82
2022/08/16 04:28:16;;;;;;;6.07;5.50;;;18.20;99.90;;;;;;5050688;28;20036;-84
2022/08/16 04:30:42;;;;;;;5.68;5.18;;;18.20;99.90;;;;;;5051613;28;20078;-82
2022/08/16 04:33:09;;;;;;;5.25;4.65;;;18.10;99.90;;;;;;5044242;28;20031;-80
2022/08/16 04:35:38;;;;;;;5.83;5.33;;;18.10;99.90;;;;;;5050128;28;20029;-80
2022/08/16 04:38:04;;;;;;;5.72;5.22;;;18.10;99.90;;;;;;5065145;28;20115;-82
2022/08/16 04:40:37;;;;;;;4.95;4.32;;;18.20;99.90;;;;;;5048599;28;20080;-81
2022/08/16 04:43:04;;;;;;;5.93;5.30;;;18.10;99.90;;;;;;5046562;28;20036;-80
2022/08/16 04:45:30;;;;;;;5.78;5.18;;;18.10;99.90;;;;;;5057512;28;20206;-80
2022/08/16 04:47:58;;;;;;;6.15;5.00;;;18.10;99.90;;;;;;5042464;28;20016;-81
2022/08/16 04:50:27;;;;;;;6.22;5.63;;;18.20;99.90;;;;;;5043496;28;20024;-85
2022/08/16 04:53:10;;;;;;;7.30;5.50;;;18.20;99.90;;;;;;5049798;28;20088;-80
2022/08/16 04:55:39;;;;;;;7.32;5.68;;;18.20;99.90;;;;;;5044974;28;20024;-81
2022/08/16 04:58:07;;;;;;;7.88;6.03;;;18.20;99.90;;;;;;5042153;28;20029;-83
2022/08/16 05:00:33;;;;;;;6.32;5.70;;;18.20;99.90;;;;;;5044551;28;20125;-80
2022/08/16 05:03:15;;;;;;;5.85;5.28;;;18.20;99.90;;;;;;5045762;28;20067;-80
2022/08/16 05:05:44;;;;;;;6.65;5.90;;;18.30;99.90;;;;;;5063847;28;20020;-80
2022/08/16 05:08:12;;;;;;;6.43;5.82;;;18.30;99.90;;;;;;5040508;28;20045;-80
2022/08/16 05:10:42;;;;;;;6.35;5.75;;;18.30;99.90;;;;;;5047511;28;20469;-80
2022/08/16 05:13:08;;;;;;;8.70;6.28;;;18.30;99.90;;;;;;5062732;28;20039;-80
2022/08/16 05:15:35;;;;;;;8.77;6.07;;;18.40;99.90;;;;;;5044212;28;20052;-84
2022/08/16 05:18:02;;;;;;;6.28;5.68;;;18.40;99.90;;;;;;5063295;28;20017;-80
2022/08/16 05:20:31;;;;;;;;;;;18.50;99.90;;;;;;5044746;28;20039;-80
2022/08/16 05:22:57;;;;;;;5.82;5.20;;;18.50;99.90;;;;;;5058343;28;19913;-80
2022/08/16 05:25:23;;;;;;;5.65;4.70;;;18.60;99.90;;;;;;5047868;28;20127;-82
2022/08/16 05:27:53;;;;;;;6.30;5.80;;;18.60;99.90;;;;;;5048181;28;20021;-81
2022/08/16 05:30:20;;;;;;;6.75;6.03;;;18.50;99.90;;;;;;5047828;28;20128;-80
2022/08/16 05:32:47;;;;;;;9.43;7.40;;;18.50;99.90;;;;;;5055098;28;20527;-81
2022/08/16 05:35:15;;;;;;;8.88;6.30;;;18.60;99.90;;;;;;5059040;28;20415;-80
2022/08/16 05:38:04;;;;;;;7.55;6.45;;;18.60;99.90;;;;;;5047864;28;20048;-80
2022/08/16 05:40:32;;;;;;;8.60;7.72;;;18.70;99.90;;;;;;5060544;28;20045;-83
2022/08/16 05:42:58;;;;;;;8.52;7.65;;;18.70;99.90;;;;;;5042229;28;20044;-81
2022/08/16 05:45:25;;;;;;;7.57;5.97;;;18.80;99.90;;;;;;5039872;28;20058;-82
2022/08/16 05:47:57;;;;;;;8.10;7.28;;;18.80;99.90;;;;;;5062638;28;20025;-83
2022/08/16 05:50:23;;;;;;;6.18;5.57;;;19.00;99.90;;;;;;5067509;28;20036;-80
2022/08/16 05:52:49;;;;;;;6.97;6.20;;;19.00;99.90;;;;;;5063297;28;20472;-80
2022/08/16 05:55:16;;;;;;;7.10;6.40;;;19.00;99.90;;;;;;5066913;28;20031;-82
2022/08/16 05:57:43;;;;;;;8.07;6.10;;;19.10;99.90;;;;;;5042855;28;20032;-80
2022/08/16 06:00:11;;;;;;;8.45;7.60;;;19.20;99.90;;;;;;5040702;28;20039;-80
2022/08/16 06:02:43;;;;;;;7.70;7.00;;;19.20;99.90;;;;;;5063648;28;20156;-82
2022/08/16 06:05:29;;;;;;;6.57;5.93;;;19.20;99.90;;;;;;5056691;28;20092;-84
2022/08/16 06:07:55;;;;;;;8.65;7.03;;;19.30;99.90;;;;;;5046304;28;20024;-81
2022/08/16 06:10:27;;;;;;;6.57;6.00;;;19.40;99.90;;;;;;5044830;28;20032;-84
2022/08/16 06:12:53;;;;;;;7.72;6.78;;;19.50;99.90;;;;;;5045791;28;20033;-82
2022/08/16 06:15:20;;;;;;;6.57;5.97;;;19.60;99.90;;;;;;5048083;28;20103;-83
2022/08/16 06:17:46;;;;;;;9.23;7.05;;;19.60;99.90;;;;;;5041193;28;20092;-80
2022/08/16 06:20:24;;;;;;;7.28;6.57;;;19.80;99.90;;;;;;5044336;28;20017;-84
2022/08/16 06:22:57;;;;;;;7.95;7.13;;;20.00;99.90;;;;;;5041439;28;20039;-82
2022/08/16 06:25:25;;;;;;;8.85;7.25;;;20.10;99.90;;;;;;5039448;28;20032;-83
2022/08/16 06:27:52;;;;;;;7.38;6.70;;;20.20;99.90;;;;;;5040160;28;20437;-83
2022/08/16 06:30:18;;;;;;;7.30;6.18;;;20.40;99.90;;;;;;5052737;28;20029;-83
2022/08/16 06:32:45;;;;;;;8.40;7.60;;;20.60;99.90;;;;;;5045995;28;20535;-81
2022/08/16 06:35:12;;;;;;;7.80;7.13;;;20.70;99.90;;;;;;5039208;28;20064;-82
2022/08/16 06:37:39;;;;;;;7.60;6.82;;;20.90;99.90;;;;;;5040068;28;20029;-82
2022/08/16 06:40:08;;;;;;;7.45;6.85;;;21.10;99.90;;;;;;5051970;28;20667;-82
2022/08/16 06:42:39;;;;;;;7.63;6.93;;;21.30;99.90;;;;;;5041973;28;20025;-80
2022/08/16 06:45:25;;;;;;;6.60;6.03;;;21.50;99.90;;;;;;5042662;28;20060;-83
2022/08/16 06:48:06;;;;;;;8.75;7.70;;;21.70;99.90;;;;;;5048607;28;20500;-82
2022/08/16 06:50:32;;;;;;;8.00;7.25;;;21.90;99.90;;;;;;5057910;28;20025;-83
2022/08/16 06:53:02;;;;;;;8.88;6.45;;;22.00;99.90;;;;;;5041526;28;20109;-81
2022/08/16 06:55:29;;;;;;;7.28;6.57;;;22.10;99.90;;;;;;5053773;28;20029;-80
2022/08/16 06:57:56;;;;;;;7.82;7.03;;;22.20;99.90;;;;;;5064282;28;20018;-81
2022/08/16 07:00:23;;;;;;;9.32;7.35;;;22.50;99.90;;;;;;5046692;28;20025;-81
2022/08/16 07:03:01;;;;;;;8.73;7.83;;;22.70;99.90;;;;;;5063593;28;20029;-81
2022/08/16 07:05:30;;;;;;;5.95;5.45;;;22.80;99.90;;;;;;5047228;28;20028;-81
2022/08/16 07:08:09;;;;;;;7.45;6.75;;;23.00;99.90;;;;;;5063524;28;20024;-82
2022/08/16 07:10:35;;;;;;;6.75;5.43;;;23.10;99.90;;;;;;5041523;28;20119;-81
2022/08/16 07:13:01;;;;;;;7.20;6.53;;;23.40;99.90;;;;;;5060970;28;20150;-82
2022/08/16 07:15:26;;;;;;;6.47;5.88;;;23.50;99.90;;;;;;5063521;28;20611;-82
2022/08/16 07:17:52;;;;;;;8.07;7.13;;;23.60;99.90;;;;;;5062317;28;20016;-81
2022/08/16 07:20:21;;;;;;;7.85;6.57;;;23.70;99.90;;;;;;5066677;28;20507;-82
2022/08/16 07:22:55;;;;;;;8.60;6.88;;;23.50;99.90;;;;;;5058847;28;20036;-82
2022/08/16 07:25:29;;;;;;;8.23;7.05;;;23.80;99.90;;;;;;5063116;28;20036;-81
2022/08/16 07:27:55;;;;;;;6.93;6.32;;;24.00;99.90;;;;;;5046533;28;20021;-82
2022/08/16 07:30:25;;;;;;;6.67;5.90;;;24.20;99.90;;;;;;5066943;28;20082;-81
2022/08/16 07:32:51;;;;;;;11.75;10.43;;;24.20;99.90;;;;;;5065392;28;20112;-82
2022/08/16 07:35:17;;;;;;;9.38;8.38;;;23.60;99.90;;;;;;5046141;28;20064;-83
2022/08/16 07:37:44;;;;;;;11.48;10.45;;;24.30;99.90;;;;;;5042556;28;20362;-82
2022/08/16 07:40:15;;;;;;;11.10;10.10;;;24.30;99.90;;;;;;5047655;28;20116;-82
2022/08/16 07:42:43;;;;;;;12.68;10.38;;;24.30;99.90;;;;;;5043486;28;20501;-82
2022/08/16 07:45:10;;;;;;;10.43;9.00;;;24.30;99.90;;;;;;5067675;28;20050;-82
2022/08/16 07:47:36;;;;;;;6.95;6.35;;;24.50;99.90;;;;;;5043937;28;20048;-82
2022/08/16 07:50:03;;;;;;;14.02;11.77;;;24.90;99.90;;;;;;5062199;28;20381;-82
2022/08/16 07:52:30;;;;;;;6.95;6.25;;;24.30;99.90;;;;;;5063768;28;20059;-82
2022/08/16 07:54:57;;;;;;;8.80;7.95;;;24.90;99.90;;;;;;5038366;28;20029;-83
2022/08/16 07:57:24;;;;;;;9.02;7.50;;;25.30;99.90;;;;;;5058858;28;20032;-82
2022/08/16 07:59:49;;;;;;;9.38;8.57;;;25.30;99.90;;;;;;5058665;28;20389;-82
2022/08/16 08:02:16;;;;;;;9.45;8.13;;;25.40;99.90;;;;;;5059963;28;20040;-82
2022/08/16 08:04:43;;;;;;;5.55;5.05;;;25.40;99.90;;;;;;5066187;28;20038;-82
2022/08/16 08:07:11;;;;;;;5.13;4.50;;;25.80;99.90;;;;;;5064855;28;20029;-81
2022/08/16 08:09:37;;;;;;;7.07;6.13;;;25.90;99.90;;;;;;5045035;28;20439;-82
2022/08/16 08:12:03;;;;;;;6.78;6.20;;;26.00;99.90;;;;;;5045655;28;20032;-82
2022/08/16 08:14:35;;;;;;;10.48;8.50;;;26.10;99.90;;;;;;5051786;28;20432;-82
2022/08/16 08:17:06;;;;;;;7.55;6.90;;;26.00;99.90;;;;;;5057232;28;20031;-82
2022/08/16 08:19:33;;;;;;;6.97;6.28;;;26.10;99.90;;;;;;5046193;28;20032;-82
2022/08/16 08:22:00;;;;;;;7.47;6.72;;;26.00;99.90;;;;;;5060102;28;20484;-83
2022/08/16 08:24:37;;;;;;;8.80;7.80;;;26.00;99.90;;;;;;5044517;28;20393;-83
2022/08/16 08:27:05;;;;;;;8.07;7.05;;;25.40;99.90;;;;;;5061087;28;20396;-83
2022/08/16 08:29:34;;;;;;;8.82;7.93;;;25.20;99.90;;;;;;5040151;28;20032;-82
2022/08/16 08:32:01;;;;;;;6.68;5.70;;;25.80;99.90;;;;;;5054163;28;20021;-83
2022/08/16 08:34:26;;;;;;;7.32;6.70;;;26.30;99.90;;;;;;5057797;28;20129;-83
2022/08/16 08:36:53;;;;;;;9.90;7.68;;;26.40;99.90;;;;;;5051265;28;20025;-83
2022/08/16 08:39:28;;;;;;;10.30;8.18;;;26.10;99.90;;;;;;5039627;28;20405;-82
2022/08/16 08:41:54;;;;;;;12.40;11.30;;;25.90;99.90;;;;;;5059662;28;20029;-83
2022/08/16 08:44:21;;;;;;;12.82;8.98;;;25.60;99.90;;;;;;5043227;28;20177;-81
2022/08/16 08:46:47;;;;;;;8.90;8.10;;;25.80;99.90;;;;;;5056155;28;20569;-81
2022/08/16 08:49:13;;;;;;;12.77;11.52;;;26.10;99.90;;;;;;5056126;28;20033;-81
2022/08/16 08:51:41;;;;;;;9.07;8.23;;;26.00;99.90;;;;;;5061583;28;20021;-82
2022/08/16 08:54:09;;;;;;;8.00;7.22;;;26.20;99.90;;;;;;5045456;28;20032;-82
2022/08/16 08:56:40;;;;;;;6.43;5.55;;;26.10;99.90;;;;;;5043112;28;20025;-81
2022/08/16 08:59:12;;;;;;;14.05;12.65;;;26.80;99.90;;;;;;5060437;28;20089;-82
2022/08/16 09:01:39;;;;;;;8.68;7.78;;;25.90;99.90;;;;;;5057332;28;20028;-80
2022/08/16 09:04:07;;;;;;;8.02;7.22;;;26.40;99.90;;;;;;5043333;28;20028;-80
2022/08/16 09:06:34;;;;;;;8.27;6.80;;;27.10;99.90;;;;;;5056857;28;20393;-80
2022/08/16 09:09:03;;;;;;;8.23;7.38;;;27.30;99.90;;;;;;5044033;28;20025;-81
2022/08/16 09:11:30;;;;;;;10.53;9.43;;;27.30;99.90;;;;;;5044701;28;20016;-81
2022/08/16 09:13:56;;;;;;;9.52;8.55;;;27.00;99.90;;;;;;5043252;28;20111;-81
2022/08/16 09:16:22;;;;;;;5.63;5.07;;;27.00;99.90;;;;;;5043075;28;20154;-82
2022/08/16 09:18:48;;;;;;;5.35;4.80;;;27.70;99.90;;;;;;5041797;28;20436;-80
2022/08/16 09:21:14;;;;;;;5.95;5.45;;;27.40;99.90;;;;;;5040840;28;20096;-82
2022/08/16 09:23:41;;;;;;;5.78;5.28;;;27.50;99.90;;;;;;5049257;28;20042;-82
2022/08/16 09:26:10;;;;;;;7.05;5.38;;;26.80;99.90;;;;;;5060153;28;22141;-80
2022/08/16 09:28:37;;;;;;;4.22;3.83;;;27.30;99.90;;;;;;5057833;28;20496;-80
2022/08/16 09:31:12;;;;;;;5.80;5.20;;;28.00;99.90;;;;;;5044974;28;20086;-81
2022/08/16 09:33:39;;;;;;;3.08;2.67;;;27.40;99.90;;;;;;5052998;28;20039;-81
2022/08/16 09:36:06;;;;;;;4.72;3.22;;;28.20;99.90;;;;;;5053203;28;20033;-82
2022/08/16 09:38:34;;;;;;;3.63;2.65;;;28.10;99.90;;;;;;5051225;28;20508;-82
2022/08/16 09:41:02;;;;;;;7.63;2.53;;;28.60;99.90;;;;;;5054357;28;20041;-81
2022/08/16 09:43:27;;;;;;;4.05;2.55;;;28.50;99.90;;;;;;5049830;28;20292;-82
2022/08/16 09:45:53;;;;;;;2.85;2.03;;;28.60;99.90;;;;;;5041844;28;20067;-82
2022/08/16 09:48:19;;;;;;;4.43;3.50;;;28.70;99.90;;;;;;5057588;28;20024;-82
2022/08/16 09:50:45;;;;;;;3.60;2.45;;;29.00;99.90;;;;;;5038867;28;20481;-82
2022/08/16 09:53:14;;;;;;;2.33;1.50;;;28.90;99.90;;;;;;5054978;28;20488;-83
2022/08/16 09:55:40;;;;;;;2.67;1.65;;;29.20;99.90;;;;;;5054275;28;20048;-82
2022/08/16 09:58:06;;;;;;;3.20;1.33;;;29.20;99.90;;;;;;5050528;28;20037;-82
2022/08/16 10:00:32;;;;;;;3.60;1.50;;;29.40;99.90;;;;;;5050079;28;20037;-82
2022/08/16 10:02:57;;;;;;;3.25;1.42;;;29.30;99.90;;;;;;5048105;28;20052;-82
2022/08/16 10:05:23;;;;;;;2.38;1.00;;;29.50;99.90;;;;;;5052819;28;20074;-83
2022/08/16 10:07:51;;;;;;;6.47;1.50;;;29.80;99.90;;;;;;5050712;28;20112;-83
2022/08/16 10:10:22;;;;;;;5.53;1.80;;;28.70;99.90;;;;;;5052104;28;20119;-84
2022/08/16 10:15:34;;;;;;;3.65;2.20;;;28.10;99.90;;;;;;5054108;28;20025;-82
2022/08/16 10:18:06;;;;;;;3.92;2.22;;;27.70;99.90;;;;;;5052297;28;20036;-83
2022/08/16 10:20:37;;;;;;;4.60;1.90;;;27.70;99.90;;;;;;5061595;28;20033;-83
2022/08/16 10:23:07;;;;;;;3.40;1.35;;;27.60;99.90;;;;;;5053918;28;20100;-82
2022/08/16 10:25:35;;;;;;;3.85;1.00;;;28.60;99.90;;;;;;5052442;28;20032;-82
2022/08/16 10:28:01;;;;;;;1.88;1.10;;;29.10;99.90;;;;;;5055907;28;20032;-83
2022/08/16 10:30:27;;;;;;;2.92;1.10;;;29.50;99.90;;;;;;5054179;28;20102;-82
2022/08/16 10:32:52;;;;;;;4.65;1.70;;;29.20;99.90;;;;;;5052973;28;20489;-82
2022/08/16 10:35:18;;;;;;;2.00;0.70;;;28.90;99.90;;;;;;5050651;28;20473;-82
2022/08/16 10:37:44;;;;;;;2.83;1.08;;;29.70;99.90;;;;;;5050905;28;20116;-83
2022/08/16 10:40:12;;;;;;;2.20;1.20;;;29.20;99.90;;;;;;5053244;28;20096;-82
2022/08/16 10:42:38;;;;;;;2.05;1.20;;;29.50;99.90;;;;;;5052723;28;20025;-83
2022/08/16 10:45:04;;;;;;;3.70;1.10;;;30.10;99.90;;;;;;5059455;28;20041;-83
2022/08/16 10:47:30;;;;;;;1.60;1.00;;;30.10;99.90;;;;;;5051559;28;20020;-81
2022/08/16 10:49:58;;;;;;;3.45;2.03;;;30.20;99.90;;;;;;5052748;28;20095;-84
2022/08/16 10:52:24;;;;;;;7.10;2.15;;;29.40;99.90;;;;;;5053995;28;20021;-83
2022/08/16 10:54:50;;;;;;;4.20;2.35;;;28.70;99.90;;;;;;5056290;28;20053;-82
2022/08/16 10:57:15;;;;;;;3.05;1.63;;;28.40;99.90;;;;;;5059352;28;20063;-82
2022/08/16 10:59:41;;;;;;;1.70;0.90;;;28.90;99.90;;;;;;5050215;28;20055;-82
2022/08/16 11:02:10;;;;;;;2.38;1.42;;;29.80;99.90;;;;;;5052983;28;20603;-84
2022/08/16 11:04:37;;;;;;;2.47;0.90;;;29.70;99.90;;;;;;5052540;28;20119;-82
2022/08/16 11:07:04;;;;;;;3.92;1.60;;;30.20;99.90;;;;;;5057072;28;20139;-84
2022/08/16 11:09:30;;;;;;;1.98;1.23;;;29.80;99.90;;;;;;5063934;28;20086;-82
2022/08/16 11:11:56;;;;;;;3.25;1.00;;;29.50;99.90;;;;;;5061766;28;20028;-81
2022/08/16 11:14:23;;;;;;;3.83;1.00;;;30.20;99.90;;;;;;5057973;28;20432;-81
2022/08/16 11:16:49;;;;;;;2.78;0.90;;;30.70;99.90;;;;;;5046871;28;20029;-82
2022/08/16 11:19:16;;;;;;;4.28;1.73;;;30.80;99.90;;;;;;5060719;28;20095;-83
2022/08/16 11:21:43;;;;;;;1.67;1.00;;;30.50;99.90;;;;;;5060001;28;20083;-82
2022/08/16 11:24:08;;;;;;;1.70;0.70;;;30.70;99.90;;;;;;5056432;28;20123;-83
2022/08/16 11:26:34;;;;;;;4.53;1.60;;;31.00;99.90;;;;;;5045693;28;20450;-83
2022/08/16 11:29:00;;;;;;;2.92;1.00;;;30.50;99.90;;;;;;5055994;28;20039;-81
2022/08/16 11:31:26;;;;;;;2.90;1.23;;;31.00;99.90;;;;;;5056902;28;20124;-82
2022/08/16 11:33:52;;;;;;;2.55;0.85;;;30.00;99.90;;;;;;5054622;28;20127;-83
2022/08/16 11:36:18;;;;;;;3.10;1.70;;;29.80;99.90;;;;;;5054890;28;20040;-81
2022/08/16 11:38:45;;;;;;;1.60;0.73;;;29.90;99.90;;;;;;5046472;28;20025;-82
2022/08/16 11:41:11;;;;;;;4.20;0.90;;;30.70;99.90;;;;;;5058064;28;20051;-83
2022/08/16 11:43:40;;;;;;;3.20;0.65;;;30.30;99.90;;;;;;5059500;28;20413;-82
2022/08/16 11:46:09;;;;;;;1.33;0.80;;;30.70;99.90;;;;;;5055679;28;20911;-82
2022/08/16 11:48:36;;;;;;;1.80;0.68;;;31.10;99.90;;;;;;5035729;28;20064;-81
2022/08/16 11:51:03;;;;;;;2.28;0.68;;;31.80;99.90;;;;;;5056080;28;20043;-80
2022/08/16 11:53:31;;;;;;;2.53;1.08;;;31.60;99.90;;;;;;5052990;28;20648;-83
2022/08/16 11:55:58;;;;;;;2.13;0.90;;;31.50;99.90;;;;;;5053749;28;20024;-83
2022/08/16 11:58:26;;;;;;;2.38;1.83;;;31.10;99.90;;;;;;5055035;28;20070;-84
2022/08/16 12:00:53;;;;;;;3.00;0.95;;;30.10;99.90;;;;;;5054174;28;20499;-83
2022/08/16 12:03:22;;;;;;;2.38;1.52;;;30.40;99.90;;;;;;5038703;28;20094;-84
2022/08/16 12:05:48;;;;;;;3.63;1.00;;;29.80;99.90;;;;;;5038526;28;20045;-84
2022/08/16 12:08:14;;;;;;;2.88;1.50;;;28.90;99.90;;;;;;5056106;28;21956;-84
2022/08/16 12:10:41;;;;;;;2.85;1.20;;;29.10;99.90;;;;;;5057556;28;20029;-82
2022/08/16 12:13:08;;;;;;;3.58;1.42;;;29.50;99.90;;;;;;5059123;28;20297;-83
2022/08/16 12:15:34;;;;;;;3.30;1.40;;;29.70;99.90;;;;;;5060297;28;20481;-82
2022/08/16 12:18:00;;;;;;;3.47;0.90;;;29.90;99.90;;;;;;5055812;28;20025;-83
2022/08/16 12:20:29;;;;;;;4.47;1.98;;;29.30;99.90;;;;;;5058119;28;20052;-84
2022/08/16 12:22:55;;;;;;;2.50;1.58;;;29.00;99.90;;;;;;5049802;28;20110;-83
2022/08/16 12:25:24;;;;;;;3.97;2.30;;;28.80;99.90;;;;;;5042409;28;20082;-83
2022/08/16 12:27:51;;;;;;;3.40;1.30;;;28.30;99.90;;;;;;5051928;28;20100;-82
2022/08/16 12:30:23;;;;;;;2.33;1.67;;;28.30;99.90;;;;;;5054913;28;20052;-83
2022/08/16 12:32:49;;;;;;;2.55;1.50;;;28.50;99.90;;;;;;5039201;28;20123;-83
2022/08/16 12:35:19;;;;;;;2.95;1.77;;;28.30;99.90;;;;;;5055237;28;21926;-83
2022/08/16 12:37:46;;;;;;;5.63;2.38;;;28.40;99.90;;;;;;5060341;28;20024;-82
2022/08/16 12:40:17;;;;;;;4.22;2.47;;;28.20;99.90;;;;;;5058023;28;20059;-83
2022/08/16 12:42:43;;;;;;;3.92;1.70;;;28.30;99.90;;;;;;5060044;28;20029;-83
2022/08/16 12:45:12;;;;;;;4.88;1.85;;;28.60;99.90;;;;;;5040985;28;20135;-82
2022/08/16 12:50:22;;;;;;;2.20;1.55;;;28.30;99.90;;;;;;5052654;28;19908;-82
2022/08/16 12:52:48;;;;;;;4.32;2.20;;;28.30;99.90;;;;;;5034707;28;20382;-82
2022/08/16 12:55:15;;;;;;;5.65;1.27;;;28.40;99.90;;;;;;5054808;28;20036;-83